RPC915 RPLL-RPVB
Flight info
| Callsign | RPC915 |
|---|---|
| Flight time | 0h 48m |
| Altitude | 17000 |
| Route | VERDE2V VERDE W24 TAPER B472 LAMBO LAMBO3P |
| Aircraft | C700/M-SDFGIRY/S |
Departure
| Time | 2026-04-21 11:56 |
|---|---|
| Airport | Ninoy Aquino International Airport (RPLL) |
Arrival
| Time | 2026-04-21 12:44 |
|---|---|
| Airport | Bacolod-Silay International Airport (RPVB) |
| Time | Latitude | Longitude | Altitude | Speed | Heading |
|---|---|---|---|---|---|
| 2026-04-21 11:43 | 14.52733 | 121.00178 | 63 ft | 0 kts | 176° |
| 2026-04-21 11:50 | 14.52721 | 121.00179 | 61 ft | 5 kts | 175° |
| 2026-04-21 11:50 | 14.52657 | 121.00182 | 63 ft | 13 kts | 179° |
| 2026-04-21 11:50 | 14.52606 | 121.00250 | 63 ft | 14 kts | 100° |
| 2026-04-21 11:50 | 14.52586 | 121.00376 | 62 ft | 21 kts | 99° |
| 2026-04-21 11:51 | 14.52515 | 121.00496 | 61 ft | 13 kts | 144° |
| 2026-04-21 11:51 | 14.52444 | 121.00447 | 59 ft | 8 kts | 227° |
| 2026-04-21 11:51 | 14.52429 | 121.00431 | 62 ft | 0 kts | 225° |
| 2026-04-21 11:52 | 14.52427 | 121.00429 | 62 ft | 2 kts | 225° |
| 2026-04-21 11:52 | 14.52396 | 121.00401 | 63 ft | 9 kts | 207° |
| 2026-04-21 11:52 | 14.52338 | 121.00426 | 63 ft | 12 kts | 133° |
| 2026-04-21 11:53 | 14.52301 | 121.00464 | 57 ft | 5 kts | 134° |
| 2026-04-21 11:53 | 14.52295 | 121.00471 | 61 ft | 0 kts | 134° |
| 2026-04-21 11:55 | 14.52291 | 121.00475 | 60 ft | 10 kts | 134° |
| 2026-04-21 11:55 | 14.51986 | 121.00791 | 60 ft | 114 kts | 136° |
| 2026-04-21 11:55 | 14.51228 | 121.01505 | 566 ft | 171 kts | 139° |
| 2026-04-21 11:56 | 14.50310 | 121.02455 | 1669 ft | 202 kts | 128° |
| 2026-04-21 11:56 | 14.49321 | 121.03600 | 3088 ft | 225 kts | 133° |
| 2026-04-21 11:56 | 14.48144 | 121.04786 | 4513 ft | 248 kts | 135° |
| 2026-04-21 11:56 | 14.46869 | 121.06074 | 5941 ft | 260 kts | 134° |
| 2026-04-21 11:57 | 14.45550 | 121.07390 | 7501 ft | 268 kts | 137° |
| 2026-04-21 11:57 | 14.43933 | 121.08409 | 9005 ft | 279 kts | 153° |
| 2026-04-21 11:57 | 14.42041 | 121.08995 | 10422 ft | 293 kts | 167° |
| 2026-04-21 11:57 | 14.39903 | 121.09031 | 11375 ft | 323 kts | 186° |
| 2026-04-21 11:58 | 14.37679 | 121.08500 | 12791 ft | 330 kts | 193° |
| 2026-04-21 11:58 | 14.35423 | 121.07943 | 14166 ft | 338 kts | 192° |
| 2026-04-21 11:58 | 14.33112 | 121.07394 | 15426 ft | 343 kts | 192° |
| 2026-04-21 11:58 | 14.30765 | 121.06820 | 16663 ft | 350 kts | 193° |
| 2026-04-21 11:59 | 14.28411 | 121.06104 | 17865 ft | 357 kts | 202° |
| 2026-04-21 11:59 | 14.26229 | 121.04855 | 18965 ft | 361 kts | 214° |
| 2026-04-21 11:59 | 14.24156 | 121.03376 | 20074 ft | 364 kts | 214° |
| 2026-04-21 11:59 | 14.22057 | 121.01893 | 21171 ft | 367 kts | 214° |
| 2026-04-21 12:00 | 14.20654 | 121.00907 | 21877 ft | 370 kts | 214° |
| 2026-04-21 12:00 | 14.18515 | 120.99401 | 22915 ft | 375 kts | 214° |
| 2026-04-21 12:00 | 14.16353 | 120.97872 | 23812 ft | 381 kts | 214° |
| 2026-04-21 12:00 | 14.14150 | 120.96318 | 24631 ft | 385 kts | 214° |
| 2026-04-21 12:01 | 14.11924 | 120.94748 | 25415 ft | 391 kts | 214° |
| 2026-04-21 12:01 | 14.09660 | 120.93165 | 26200 ft | 396 kts | 213° |
| 2026-04-21 12:01 | 14.07177 | 120.91887 | 26965 ft | 403 kts | 202° |
| 2026-04-21 12:01 | 14.04476 | 120.91046 | 27729 ft | 410 kts | 193° |
| 2026-04-21 12:02 | 14.01623 | 120.90692 | 28469 ft | 417 kts | 183° |
| 2026-04-21 12:02 | 13.95793 | 120.91529 | 29913 ft | 432 kts | 167° |
| 2026-04-21 12:02 | 13.92865 | 120.92289 | 30539 ft | 436 kts | 168° |
| 2026-04-21 12:03 | 13.89903 | 120.93045 | 31173 ft | 441 kts | 168° |
| 2026-04-21 12:03 | 13.86909 | 120.93812 | 31781 ft | 446 kts | 167° |
| 2026-04-21 12:03 | 13.83887 | 120.94589 | 32371 ft | 450 kts | 167° |
| 2026-04-21 12:03 | 13.80833 | 120.95374 | 32933 ft | 454 kts | 167° |
| 2026-04-21 12:04 | 13.77762 | 120.96161 | 33628 ft | 454 kts | 168° |
| 2026-04-21 12:04 | 13.74704 | 120.96945 | 34329 ft | 452 kts | 168° |
| 2026-04-21 12:04 | 13.71656 | 120.97727 | 35008 ft | 450 kts | 168° |
| 2026-04-21 12:04 | 13.68626 | 120.98503 | 35707 ft | 448 kts | 168° |
| 2026-04-21 12:05 | 13.65605 | 120.99277 | 36416 ft | 446 kts | 168° |
| 2026-04-21 12:05 | 13.62606 | 121.00045 | 37112 ft | 443 kts | 168° |
| 2026-04-21 12:05 | 13.59620 | 121.00810 | 37784 ft | 441 kts | 168° |
| 2026-04-21 12:05 | 13.56647 | 121.01570 | 38423 ft | 439 kts | 168° |
| 2026-04-21 12:06 | 13.53696 | 121.02326 | 38932 ft | 438 kts | 168° |
| 2026-04-21 12:06 | 13.50795 | 121.03320 | 39334 ft | 440 kts | 159° |
| 2026-04-21 12:06 | 13.48081 | 121.04791 | 39728 ft | 443 kts | 149° |
| 2026-04-21 12:06 | 13.45540 | 121.06580 | 40098 ft | 443 kts | 147° |
| 2026-04-21 12:07 | 13.42999 | 121.08366 | 40457 ft | 442 kts | 148° |
| 2026-04-21 12:07 | 13.40489 | 121.10119 | 40789 ft | 442 kts | 148° |
| 2026-04-21 12:07 | 13.37943 | 121.11909 | 40918 ft | 447 kts | 147° |
| 2026-04-21 12:08 | 13.32730 | 121.15576 | 40925 ft | 461 kts | 147° |
| 2026-04-21 12:08 | 13.27353 | 121.19346 | 40944 ft | 474 kts | 147° |
| 2026-04-21 12:09 | 13.21836 | 121.23218 | 40949 ft | 485 kts | 147° |
| 2026-04-21 12:09 | 13.16246 | 121.27136 | 40947 ft | 487 kts | 147° |
| 2026-04-21 12:10 | 13.10657 | 121.31052 | 40951 ft | 487 kts | 147° |
| 2026-04-21 12:10 | 13.05058 | 121.34972 | 40940 ft | 486 kts | 147° |
| 2026-04-21 12:11 | 12.99472 | 121.38882 | 40944 ft | 486 kts | 147° |
| 2026-04-21 12:11 | 12.93884 | 121.42791 | 40941 ft | 486 kts | 147° |
| 2026-04-21 12:12 | 12.88294 | 121.46698 | 40936 ft | 486 kts | 147° |
| 2026-04-21 12:12 | 12.82703 | 121.50605 | 40929 ft | 487 kts | 147° |
| 2026-04-21 12:13 | 12.77111 | 121.54509 | 40924 ft | 486 kts | 147° |
| 2026-04-21 12:13 | 12.71521 | 121.58411 | 40920 ft | 487 kts | 147° |
| 2026-04-21 12:14 | 12.65921 | 121.62316 | 40919 ft | 487 kts | 147° |
| 2026-04-21 12:14 | 12.60321 | 121.66221 | 40913 ft | 487 kts | 147° |
| 2026-04-21 12:15 | 12.54717 | 121.70126 | 40911 ft | 487 kts | 148° |
| 2026-04-21 12:15 | 12.49106 | 121.74032 | 40908 ft | 488 kts | 147° |
| 2026-04-21 12:16 | 12.43499 | 121.77936 | 40907 ft | 487 kts | 148° |
| 2026-04-21 12:16 | 12.37889 | 121.81831 | 40907 ft | 487 kts | 148° |
| 2026-04-21 12:17 | 12.31827 | 121.84821 | 40900 ft | 484 kts | 159° |
| 2026-04-21 12:17 | 12.25635 | 121.87534 | 40888 ft | 483 kts | 159° |
| 2026-04-21 12:17 | 12.22545 | 121.88885 | 40334 ft | 479 kts | 159° |
| 2026-04-21 12:18 | 12.19548 | 121.90188 | 39718 ft | 470 kts | 159° |
| 2026-04-21 12:18 | 12.16573 | 121.91484 | 39106 ft | 460 kts | 159° |
| 2026-04-21 12:18 | 12.13660 | 121.92758 | 38495 ft | 451 kts | 159° |
| 2026-04-21 12:18 | 12.10795 | 121.94008 | 37873 ft | 445 kts | 159° |
| 2026-04-21 12:19 | 12.07951 | 121.95245 | 37287 ft | 444 kts | 159° |
| 2026-04-21 12:19 | 12.05084 | 121.96492 | 36699 ft | 452 kts | 159° |
| 2026-04-21 12:19 | 12.02169 | 121.97763 | 36100 ft | 458 kts | 159° |
| 2026-04-21 12:19 | 11.99233 | 121.99044 | 35498 ft | 460 kts | 159° |
| 2026-04-21 12:20 | 11.96285 | 122.00329 | 34889 ft | 461 kts | 159° |
| 2026-04-21 12:20 | 11.93328 | 122.01616 | 34281 ft | 463 kts | 159° |
| 2026-04-21 12:20 | 11.90362 | 122.02907 | 33638 ft | 464 kts | 159° |
| 2026-04-21 12:20 | 11.87392 | 122.04200 | 33014 ft | 464 kts | 158° |
| 2026-04-21 12:21 | 11.84418 | 122.05494 | 32400 ft | 465 kts | 158° |
| 2026-04-21 12:21 | 11.81436 | 122.06791 | 31786 ft | 466 kts | 158° |
| 2026-04-21 12:21 | 11.78491 | 122.08073 | 31176 ft | 467 kts | 158° |
| 2026-04-21 12:21 | 11.75461 | 122.09389 | 30549 ft | 467 kts | 158° |
| 2026-04-21 12:22 | 11.72467 | 122.10691 | 29924 ft | 468 kts | 158° |
| 2026-04-21 12:22 | 11.69481 | 122.11990 | 29267 ft | 465 kts | 158° |
| 2026-04-21 12:22 | 11.66520 | 122.13277 | 28657 ft | 461 kts | 158° |
| 2026-04-21 12:22 | 11.63580 | 122.14554 | 28051 ft | 457 kts | 158° |
| 2026-04-21 12:23 | 11.60662 | 122.15821 | 27449 ft | 454 kts | 158° |
| 2026-04-21 12:23 | 11.57772 | 122.17076 | 26854 ft | 450 kts | 158° |
| 2026-04-21 12:23 | 11.54901 | 122.18323 | 26262 ft | 446 kts | 158° |
| 2026-04-21 12:23 | 11.52057 | 122.19556 | 25676 ft | 443 kts | 158° |
| 2026-04-21 12:24 | 11.49238 | 122.20779 | 25098 ft | 438 kts | 158° |
| 2026-04-21 12:24 | 11.46441 | 122.21994 | 24523 ft | 436 kts | 158° |
| 2026-04-21 12:24 | 11.43661 | 122.23200 | 23953 ft | 432 kts | 158° |
| 2026-04-21 12:24 | 11.40904 | 122.24396 | 23369 ft | 429 kts | 158° |
| 2026-04-21 12:25 | 11.38177 | 122.25577 | 22783 ft | 424 kts | 158° |
| 2026-04-21 12:25 | 11.35470 | 122.26751 | 22220 ft | 421 kts | 158° |
| 2026-04-21 12:25 | 11.32829 | 122.27896 | 21685 ft | 402 kts | 158° |
| 2026-04-21 12:25 | 11.30315 | 122.28986 | 21168 ft | 384 kts | 158° |
| 2026-04-21 12:26 | 11.27906 | 122.30030 | 20674 ft | 369 kts | 158° |
| 2026-04-21 12:26 | 11.25589 | 122.31033 | 20198 ft | 356 kts | 158° |
| 2026-04-21 12:26 | 11.23349 | 122.32002 | 19743 ft | 345 kts | 158° |
| 2026-04-21 12:26 | 11.21168 | 122.32947 | 19294 ft | 337 kts | 158° |
| 2026-04-21 12:27 | 11.19016 | 122.33879 | 18852 ft | 335 kts | 157° |
| 2026-04-21 12:27 | 11.16902 | 122.34793 | 18419 ft | 334 kts | 157° |
| 2026-04-21 12:27 | 11.14854 | 122.35909 | 17950 ft | 334 kts | 148° |
| 2026-04-21 12:27 | 11.12888 | 122.37150 | 17504 ft | 331 kts | 149° |
| 2026-04-21 12:28 | 11.10909 | 122.38340 | 17071 ft | 329 kts | 150° |
| 2026-04-21 12:28 | 11.08946 | 122.39523 | 16649 ft | 327 kts | 150° |
| 2026-04-21 12:28 | 11.07001 | 122.40719 | 16226 ft | 326 kts | 149° |
| 2026-04-21 12:28 | 11.05068 | 122.41907 | 15805 ft | 324 kts | 150° |
| 2026-04-21 12:29 | 11.03140 | 122.43082 | 15381 ft | 322 kts | 150° |
| 2026-04-21 12:29 | 11.01223 | 122.44250 | 14969 ft | 320 kts | 150° |
| 2026-04-21 12:29 | 10.99318 | 122.45416 | 14554 ft | 319 kts | 150° |
| 2026-04-21 12:29 | 10.97423 | 122.46574 | 14141 ft | 317 kts | 150° |
| 2026-04-21 12:30 | 10.95536 | 122.47726 | 13730 ft | 315 kts | 150° |
| 2026-04-21 12:30 | 10.93662 | 122.48869 | 13293 ft | 313 kts | 150° |
| 2026-04-21 12:30 | 10.91782 | 122.50017 | 12886 ft | 310 kts | 150° |
| 2026-04-21 12:30 | 10.89943 | 122.51139 | 12492 ft | 307 kts | 150° |
| 2026-04-21 12:31 | 10.88186 | 122.52303 | 12098 ft | 305 kts | 142° |
| 2026-04-21 12:31 | 10.86721 | 122.53862 | 11707 ft | 305 kts | 129° |
| 2026-04-21 12:31 | 10.85456 | 122.55580 | 11317 ft | 303 kts | 128° |
| 2026-04-21 12:31 | 10.84185 | 122.57274 | 10928 ft | 301 kts | 128° |
| 2026-04-21 12:32 | 10.82918 | 122.58955 | 10585 ft | 297 kts | 128° |
| 2026-04-21 12:32 | 10.81674 | 122.60621 | 10244 ft | 295 kts | 128° |
| 2026-04-21 12:32 | 10.80435 | 122.62282 | 9865 ft | 294 kts | 128° |
| 2026-04-21 12:32 | 10.79201 | 122.63930 | 9459 ft | 291 kts | 128° |
| 2026-04-21 12:33 | 10.77983 | 122.65555 | 9081 ft | 287 kts | 127° |
| 2026-04-21 12:33 | 10.76778 | 122.67165 | 8715 ft | 285 kts | 127° |
| 2026-04-21 12:33 | 10.75583 | 122.68762 | 8342 ft | 283 kts | 127° |
| 2026-04-21 12:33 | 10.74395 | 122.70347 | 8012 ft | 280 kts | 127° |
| 2026-04-21 12:34 | 10.73231 | 122.71901 | 7613 ft | 276 kts | 127° |
| 2026-04-21 12:34 | 10.72073 | 122.73447 | 7245 ft | 271 kts | 126° |
| 2026-04-21 12:34 | 10.70932 | 122.74970 | 6909 ft | 272 kts | 126° |
| 2026-04-21 12:34 | 10.69834 | 122.76437 | 6563 ft | 274 kts | 126° |
| 2026-04-21 12:35 | 10.68677 | 122.77982 | 6194 ft | 274 kts | 126° |
| 2026-04-21 12:35 | 10.67524 | 122.79518 | 5815 ft | 269 kts | 126° |
| 2026-04-21 12:35 | 10.66488 | 122.80895 | 5580 ft | 222 kts | 126° |
| 2026-04-21 12:35 | 10.65718 | 122.82046 | 5511 ft | 172 kts | 116° |
| 2026-04-21 12:36 | 10.65169 | 122.83054 | 5408 ft | 159 kts | 117° |
| 2026-04-21 12:36 | 10.64634 | 122.83979 | 5226 ft | 149 kts | 118° |
| 2026-04-21 12:36 | 10.64114 | 122.84887 | 5045 ft | 146 kts | 117° |
| 2026-04-21 12:36 | 10.63603 | 122.85783 | 4854 ft | 146 kts | 117° |
| 2026-04-21 12:37 | 10.63094 | 122.86677 | 4672 ft | 146 kts | 118° |
| 2026-04-21 12:37 | 10.62588 | 122.87562 | 4470 ft | 143 kts | 118° |
| 2026-04-21 12:37 | 10.62091 | 122.88436 | 4287 ft | 143 kts | 118° |
| 2026-04-21 12:37 | 10.61594 | 122.89308 | 4095 ft | 141 kts | 117° |
| 2026-04-21 12:38 | 10.61163 | 122.90198 | 3901 ft | 139 kts | 103° |
| 2026-04-21 12:38 | 10.61150 | 122.91179 | 3723 ft | 141 kts | 83° |
| 2026-04-21 12:38 | 10.61466 | 122.92101 | 3539 ft | 140 kts | 62° |
| 2026-04-21 12:38 | 10.62114 | 122.92847 | 3355 ft | 143 kts | 41° |
| 2026-04-21 12:39 | 10.62984 | 122.93346 | 3168 ft | 144 kts | 32° |
| 2026-04-21 12:39 | 10.63842 | 122.93849 | 2986 ft | 141 kts | 35° |
| 2026-04-21 12:39 | 10.64682 | 122.94346 | 2790 ft | 140 kts | 33° |
| 2026-04-21 12:39 | 10.65537 | 122.94843 | 2608 ft | 142 kts | 33° |
| 2026-04-21 12:40 | 10.66392 | 122.95340 | 2424 ft | 141 kts | 34° |
| 2026-04-21 12:40 | 10.67201 | 122.95807 | 2233 ft | 124 kts | 33° |
| 2026-04-21 12:40 | 10.67916 | 122.96227 | 2067 ft | 119 kts | 34° |
| 2026-04-21 12:40 | 10.68640 | 122.96653 | 1919 ft | 122 kts | 34° |
| 2026-04-21 12:41 | 10.69386 | 122.97086 | 1798 ft | 122 kts | 34° |
| 2026-04-21 12:41 | 10.70104 | 122.97503 | 1618 ft | 123 kts | 34° |
| 2026-04-21 12:41 | 10.70862 | 122.97946 | 1408 ft | 123 kts | 33° |
| 2026-04-21 12:41 | 10.71587 | 122.98371 | 1270 ft | 121 kts | 31° |
| 2026-04-21 12:42 | 10.72312 | 122.98795 | 1110 ft | 117 kts | 33° |
| 2026-04-21 12:42 | 10.73022 | 122.99201 | 967 ft | 117 kts | 32° |
| 2026-04-21 12:42 | 10.73729 | 122.99616 | 816 ft | 118 kts | 31° |
| 2026-04-21 12:42 | 10.74442 | 123.00027 | 666 ft | 118 kts | 33° |
| 2026-04-21 12:43 | 10.75179 | 123.00466 | 514 ft | 128 kts | 31° |
| 2026-04-21 12:43 | 10.75962 | 123.00913 | 350 ft | 126 kts | 31° |
| 2026-04-21 12:43 | 10.76716 | 123.01361 | 179 ft | 126 kts | 33° |
| 2026-04-21 12:43 | 10.77437 | 123.01780 | 88 ft | 104 kts | 31° |
| 2026-04-21 12:44 | 10.77933 | 123.02079 | 83 ft | 59 kts | 32° |
| 2026-04-21 12:44 | 10.78236 | 123.02250 | 80 ft | 43 kts | 26° |
| 2026-04-21 12:44 | 10.78378 | 123.02322 | 81 ft | 17 kts | 3° |
| 2026-04-21 12:44 | 10.78407 | 123.02344 | 79 ft | 6 kts | 194° |